sensor_id;sensor_type;location;lat;lon;timestamp;pressure;altitude;pressure_sealevel;temperature;humidity
79362;BME280;68830;47.566;19.012;2023-05-14T00:02:26;100434.69;;;10.75;83.39
79362;BME280;68830;47.566;19.012;2023-05-14T00:05:28;100361.59;;;10.34;86.20
79362;BME280;68830;47.566;19.012;2023-05-14T00:08:31;100394.91;;;10.56;84.84
79362;BME280;68830;47.566;19.012;2023-05-14T00:11:33;100386.97;;;10.56;84.23
79362;BME280;68830;47.566;19.012;2023-05-14T00:14:35;100428.13;;;10.79;85.58
79362;BME280;68830;47.566;19.012;2023-05-14T00:17:39;100431.78;;;10.88;85.13
79362;BME280;68830;47.566;19.012;2023-05-14T00:20:43;100397.16;;;10.70;83.78
79362;BME280;68830;47.566;19.012;2023-05-14T00:23:45;100392.69;;;10.70;84.47
79362;BME280;68830;47.566;19.012;2023-05-14T00:26:47;100369.16;;;10.58;84.84
79362;BME280;68830;47.566;19.012;2023-05-14T00:29:49;100365.09;;;10.54;84.27
79362;BME280;68830;47.566;19.012;2023-05-14T00:32:52;100376.25;;;10.67;84.23
79362;BME280;68830;47.566;19.012;2023-05-14T00:35:54;100373.63;;;10.57;84.42
79362;BME280;68830;47.566;19.012;2023-05-14T00:38:56;100370.13;;;10.66;85.11
79362;BME280;68830;47.566;19.012;2023-05-14T00:41:58;100343.50;;;10.48;84.47
79362;BME280;68830;47.566;19.012;2023-05-14T00:45:01;100418.91;;;11.02;83.58
79362;BME280;68830;47.566;19.012;2023-05-14T00:48:06;100429.38;;;11.14;84.29
79362;BME280;68830;47.566;19.012;2023-05-14T00:51:09;100343.91;;;10.63;84.34
79362;BME280;68830;47.566;19.012;2023-05-14T00:54:12;100362.31;;;10.74;84.78
79362;BME280;68830;47.566;19.012;2023-05-14T00:57:14;100365.78;;;10.85;82.78
79362;BME280;68830;47.566;19.012;2023-05-14T01:00:17;100415.44;;;11.12;84.47
79362;BME280;68830;47.566;19.012;2023-05-14T01:03:20;100362.44;;;10.83;84.61
79362;BME280;68830;47.566;19.012;2023-05-14T01:06:30;100354.50;;;10.83;84.24
79362;BME280;68830;47.566;19.012;2023-05-14T01:09:41;100376.09;;;10.97;83.71
79362;BME280;68830;47.566;19.012;2023-05-14T01:12:51;100326.34;;;10.72;81.58
79362;BME280;68830;47.566;19.012;2023-05-14T01:15:58;100355.19;;;11.04;81.11
79362;BME280;68830;47.566;19.012;2023-05-14T01:19:04;100367.44;;;11.15;83.93
79362;BME280;68830;47.566;19.012;2023-05-14T01:22:10;100364.09;;;11.13;82.60
79362;BME280;68830;47.566;19.012;2023-05-14T01:25:12;100387.06;;;11.31;83.40
79362;BME280;68830;47.566;19.012;2023-05-14T01:28:16;100309.47;;;10.83;82.52
79362;BME280;68830;47.566;19.012;2023-05-14T01:31:23;100359.34;;;11.16;83.74
79362;BME280;68830;47.566;19.012;2023-05-14T01:34:29;100321.69;;;11.13;80.18
79362;BME280;68830;47.566;19.012;2023-05-14T01:37:34;100311.13;;;11.03;82.21
79362;BME280;68830;47.566;19.012;2023-05-14T01:40:40;100369.34;;;11.42;80.53
79362;BME280;68830;47.566;19.012;2023-05-14T01:43:44;100327.75;;;11.32;79.42
79362;BME280;68830;47.566;19.012;2023-05-14T01:46:47;100352.00;;;11.47;79.07
79362;BME280;68830;47.566;19.012;2023-05-14T01:49:49;100356.16;;;11.59;77.74
79362;BME280;68830;47.566;19.012;2023-05-14T01:52:53;100309.94;;;11.25;81.71
79362;BME280;68830;47.566;19.012;2023-05-14T01:55:57;100287.97;;;11.05;80.89
79362;BME280;68830;47.566;19.012;2023-05-14T01:58:59;100265.94;;;10.95;78.37
79362;BME280;68830;47.566;19.012;2023-05-14T02:02:03;100343.19;;;11.56;79.90
79362;BME280;68830;47.566;19.012;2023-05-14T02:05:06;100270.41;;;10.94;81.19
79362;BME280;68830;47.566;19.012;2023-05-14T02:08:09;100286.00;;;11.07;81.71
79362;BME280;68830;47.566;19.012;2023-05-14T02:11:12;100306.47;;;11.24;81.93
79362;BME280;68830;47.566;19.012;2023-05-14T02:14:14;100239.06;;;10.70;82.69
79362;BME280;68830;47.566;19.012;2023-05-14T02:17:16;100304.13;;;11.12;79.98
79362;BME280;68830;47.566;19.012;2023-05-14T02:20:18;100260.50;;;10.87;81.15
79362;BME280;68830;47.566;19.012;2023-05-14T02:23:22;100260.63;;;10.95;79.76
79362;BME280;68830;47.566;19.012;2023-05-14T02:26:38;100293.78;;;11.18;80.69
79362;BME280;68830;47.566;19.012;2023-05-14T02:29:40;100319.13;;;11.30;82.21
79362;BME280;68830;47.566;19.012;2023-05-14T02:32:43;100294.06;;;11.15;81.21
79362;BME280;68830;47.566;19.012;2023-05-14T02:35:45;100307.69;;;11.30;79.78
79362;BME280;68830;47.566;19.012;2023-05-14T02:38:48;100273.03;;;11.04;81.37
79362;BME280;68830;47.566;19.012;2023-05-14T02:41:50;100240.16;;;10.87;81.75
79362;BME280;68830;47.566;19.012;2023-05-14T02:44:52;100253.66;;;10.94;79.68
79362;BME280;68830;47.566;19.012;2023-05-14T02:47:57;100266.63;;;10.97;79.99
79362;BME280;68830;47.566;19.012;2023-05-14T02:50:59;100239.78;;;10.72;81.25
79362;BME280;68830;47.566;19.012;2023-05-14T02:54:03;100312.44;;;11.26;81.11
79362;BME280;68830;47.566;19.012;2023-05-14T02:57:05;100290.56;;;11.15;79.26
79362;BME280;68830;47.566;19.012;2023-05-14T03:00:08;100263.53;;;11.01;79.53
79362;BME280;68830;47.566;19.012;2023-05-14T03:03:11;100304.50;;;11.26;80.01
79362;BME280;68830;47.566;19.012;2023-05-14T03:06:13;100306.00;;;11.29;81.76
79362;BME280;68830;47.566;19.012;2023-05-14T03:09:17;100238.47;;;10.86;81.29
79362;BME280;68830;47.566;19.012;2023-05-14T03:12:19;100252.16;;;10.91;82.04
79362;BME280;68830;47.566;19.012;2023-05-14T03:15:21;100272.75;;;11.07;81.80
79362;BME280;68830;47.566;19.012;2023-05-14T03:18:23;100239.47;;;10.85;80.81
79362;BME280;68830;47.566;19.012;2023-05-14T03:21:26;100267.16;;;11.00;80.83
79362;BME280;68830;47.566;19.012;2023-05-14T03:24:29;100254.78;;;10.91;82.71
79362;BME280;68830;47.566;19.012;2023-05-14T03:27:32;100200.47;;;10.68;80.84
79362;BME280;68830;47.566;19.012;2023-05-14T03:30:35;100262.97;;;11.07;79.48
79362;BME280;68830;47.566;19.012;2023-05-14T03:33:37;100274.06;;;11.30;78.56
79362;BME280;68830;47.566;19.012;2023-05-14T03:36:39;100243.16;;;11.02;80.92
79362;BME280;68830;47.566;19.012;2023-05-14T03:39:42;100247.94;;;10.98;79.98
79362;BME280;68830;47.566;19.012;2023-05-14T03:42:45;100224.66;;;10.92;81.02
79362;BME280;68830;47.566;19.012;2023-05-14T03:45:47;100250.13;;;11.13;81.62
79362;BME280;68830;47.566;19.012;2023-05-14T03:48:53;100224.91;;;10.99;81.80
79362;BME280;68830;47.566;19.012;2023-05-14T03:51:55;100241.72;;;11.17;80.66
79362;BME280;68830;47.566;19.012;2023-05-14T03:55:00;100270.72;;;11.28;80.21
79362;BME280;68830;47.566;19.012;2023-05-14T03:58:02;100246.94;;;11.09;81.26
79362;BME280;68830;47.566;19.012;2023-05-14T04:01:06;100237.31;;;11.08;82.84
79362;BME280;68830;47.566;19.012;2023-05-14T04:04:08;100290.75;;;11.50;82.09
79362;BME280;68830;47.566;19.012;2023-05-14T04:07:11;100273.06;;;11.31;81.31
79362;BME280;68830;47.566;19.012;2023-05-14T04:10:14;100283.34;;;11.44;80.72
79362;BME280;68830;47.566;19.012;2023-05-14T04:13:19;100236.00;;;11.22;79.20
79362;BME280;68830;47.566;19.012;2023-05-14T04:16:21;100242.66;;;11.35;77.51
79362;BME280;68830;47.566;19.012;2023-05-14T04:19:25;100290.34;;;11.73;77.32
79362;BME280;68830;47.566;19.012;2023-05-14T04:22:27;100230.91;;;11.38;79.76
79362;BME280;68830;47.566;19.012;2023-05-14T04:25:31;100253.47;;;11.52;80.15
79362;BME280;68830;47.566;19.012;2023-05-14T04:28:33;100237.44;;;11.44;81.97
79362;BME280;68830;47.566;19.012;2023-05-14T04:31:35;100219.63;;;11.36;82.34
79362;BME280;68830;47.566;19.012;2023-05-14T04:34:37;100224.78;;;11.37;83.25
79362;BME280;68830;47.566;19.012;2023-05-14T04:37:39;100251.53;;;11.72;78.87
79362;BME280;68830;47.566;19.012;2023-05-14T04:40:43;100232.94;;;11.54;79.02
79362;BME280;68830;47.566;19.012;2023-05-14T04:43:48;100243.19;;;11.66;78.37
79362;BME280;68830;47.566;19.012;2023-05-14T04:46:50;100234.66;;;11.63;79.72
79362;BME280;68830;47.566;19.012;2023-05-14T04:49:52;100253.47;;;11.79;79.47
79362;BME280;68830;47.566;19.012;2023-05-14T04:52:54;100258.19;;;11.85;77.67
79362;BME280;68830;47.566;19.012;2023-05-14T04:55:58;100229.84;;;11.76;78.60
79362;BME280;68830;47.566;19.012;2023-05-14T04:59:00;100269.44;;;11.97;80.24
79362;BME280;68830;47.566;19.012;2023-05-14T05:02:02;100246.22;;;11.81;80.58
79362;BME280;68830;47.566;19.012;2023-05-14T05:05:04;100240.09;;;11.71;80.97
79362;BME280;68830;47.566;19.012;2023-05-14T05:08:07;100228.19;;;11.75;79.71
79362;BME280;68830;47.566;19.012;2023-05-14T05:11:13;100225.34;;;11.86;77.24
79362;BME280;68830;47.566;19.012;2023-05-14T05:14:15;100213.38;;;11.82;78.23
79362;BME280;68830;47.566;19.012;2023-05-14T05:17:17;100211.72;;;11.81;78.43
79362;BME280;68830;47.566;19.012;2023-05-14T05:20:19;100255.19;;;12.16;76.97
79362;BME280;68830;47.566;19.012;2023-05-14T05:23:21;100193.28;;;11.80;77.50
79362;BME280;68830;47.566;19.012;2023-05-14T05:26:25;100232.81;;;12.01;79.43
79362;BME280;68830;47.566;19.012;2023-05-14T05:29:27;100228.47;;;12.00;77.82
79362;BME280;68830;47.566;19.012;2023-05-14T05:32:30;100215.13;;;11.91;77.05
79362;BME280;68830;47.566;19.012;2023-05-14T05:35:32;100193.72;;;11.93;76.99
79362;BME280;68830;47.566;19.012;2023-05-14T05:38:34;100190.03;;;12.04;78.84
79362;BME280;68830;47.566;19.012;2023-05-14T05:41:37;100193.03;;;12.09;77.42
79362;BME280;68830;47.566;19.012;2023-05-14T05:44:40;100192.16;;;12.00;76.05
79362;BME280;68830;47.566;19.012;2023-05-14T05:47:42;100182.22;;;12.02;76.81
79362;BME280;68830;47.566;19.012;2023-05-14T05:50:46;100183.66;;;12.14;77.75
79362;BME280;68830;47.566;19.012;2023-05-14T05:53:49;100182.38;;;12.01;78.73
79362;BME280;68830;47.566;19.012;2023-05-14T05:56:53;100227.50;;;12.18;80.05
79362;BME280;68830;47.566;19.012;2023-05-14T05:59:55;100187.38;;;11.86;80.47
79362;BME280;68830;47.566;19.012;2023-05-14T06:02:57;100184.88;;;11.84;77.86
79362;BME280;68830;47.566;19.012;2023-05-14T06:05:59;100235.47;;;12.18;80.39
79362;BME280;68830;47.566;19.012;2023-05-14T06:09:04;100257.16;;;12.32;78.09
79362;BME280;68830;47.566;19.012;2023-05-14T06:12:09;100222.13;;;12.10;80.00
79362;BME280;68830;47.566;19.012;2023-05-14T06:15:11;100198.22;;;11.92;81.25
79362;BME280;68830;47.566;19.012;2023-05-14T06:18:14;100184.41;;;11.89;78.14
79362;BME280;68830;47.566;19.012;2023-05-14T06:21:18;100201.47;;;12.04;77.79
79362;BME280;68830;47.566;19.012;2023-05-14T06:24:20;100267.41;;;12.44;78.87
79362;BME280;68830;47.566;19.012;2023-05-14T06:27:24;100199.44;;;11.98;82.04
79362;BME280;68830;47.566;19.012;2023-05-14T06:30:26;100186.59;;;11.93;78.86
79362;BME280;68830;47.566;19.012;2023-05-14T06:33:28;100239.19;;;12.25;78.56
79362;BME280;68830;47.566;19.012;2023-05-14T06:36:31;100201.16;;;12.07;80.62
79362;BME280;68830;47.566;19.012;2023-05-14T06:39:34;100246.53;;;12.32;76.50
79362;BME280;68830;47.566;19.012;2023-05-14T06:42:37;100224.38;;;12.23;81.38
79362;BME280;68830;47.566;19.012;2023-05-14T06:45:39;100233.78;;;12.17;79.26
79362;BME280;68830;47.566;19.012;2023-05-14T06:48:41;100184.41;;;11.89;81.92
79362;BME280;68830;47.566;19.012;2023-05-14T06:51:43;100188.56;;;11.91;80.69
79362;BME280;68830;47.566;19.012;2023-05-14T06:54:46;100179.78;;;11.91;79.89
79362;BME280;68830;47.566;19.012;2023-05-14T06:57:49;100241.69;;;12.45;82.67
79362;BME280;68830;47.566;19.012;2023-05-14T07:00:51;100175.59;;;12.06;80.27
79362;BME280;68830;47.566;19.012;2023-05-14T07:03:54;100234.22;;;12.48;78.85
79362;BME280;68830;47.566;19.012;2023-05-14T07:06:56;100174.19;;;12.12;79.81
79362;BME280;68830;47.566;19.012;2023-05-14T07:09:58;100191.16;;;12.19;79.85
79362;BME280;68830;47.566;19.012;2023-05-14T07:13:01;100201.38;;;12.32;82.08
79362;BME280;68830;47.566;19.012;2023-05-14T07:16:05;100199.78;;;12.39;79.33
79362;BME280;68830;47.566;19.012;2023-05-14T07:19:07;100177.34;;;12.33;81.59
79362;BME280;68830;47.566;19.012;2023-05-14T07:22:09;100191.41;;;12.51;78.45
79362;BME280;68830;47.566;19.012;2023-05-14T07:25:11;100148.94;;;12.34;79.71
79362;BME280;68830;47.566;19.012;2023-05-14T07:28:15;100160.69;;;12.49;81.01
79362;BME280;68830;47.566;19.012;2023-05-14T07:31:20;100129.84;;;12.30;77.48
79362;BME280;68830;47.566;19.012;2023-05-14T07:34:22;100206.31;;;12.96;79.59
79362;BME280;68830;47.566;19.012;2023-05-14T07:37:24;100179.16;;;12.84;80.33
79362;BME280;68830;47.566;19.012;2023-05-14T07:40:26;100157.28;;;12.91;80.78
79362;BME280;68830;47.566;19.012;2023-05-14T07:43:30;100208.56;;;13.43;78.03
79362;BME280;68830;47.566;19.012;2023-05-14T07:46:32;100211.75;;;13.55;76.97
79362;BME280;68830;47.566;19.012;2023-05-14T07:49:34;100135.84;;;13.18;76.83
79362;BME280;68830;47.566;19.012;2023-05-14T07:52:36;100135.34;;;13.31;77.94
79362;BME280;68830;47.566;19.012;2023-05-14T07:55:38;100127.75;;;13.44;77.51
79362;BME280;68830;47.566;19.012;2023-05-14T07:58:42;100119.09;;;13.42;78.17
79362;BME280;68830;47.566;19.012;2023-05-14T08:01:44;100059.75;;;12.91;77.20
79362;BME280;68830;47.566;19.012;2023-05-14T08:04:46;100079.75;;;12.35;82.83
79362;BME280;68830;47.566;19.012;2023-05-14T08:07:48;100064.34;;;12.13;82.34
79362;BME280;68830;47.566;19.012;2023-05-14T08:10:50;100046.66;;;11.95;80.71
79362;BME280;68830;47.566;19.012;2023-05-14T08:13:54;100022.31;;;12.08;83.73
79362;BME280;68830;47.566;19.012;2023-05-14T08:16:56;100017.44;;;12.21;83.30
79362;BME280;68830;47.566;19.012;2023-05-14T08:19:58;100053.44;;;12.50;80.45
79362;BME280;68830;47.566;19.012;2023-05-14T08:23:00;100077.41;;;12.58;80.45
79362;BME280;68830;47.566;19.012;2023-05-14T08:26:02;100045.88;;;12.29;80.38
79362;BME280;68830;47.566;19.012;2023-05-14T08:29:05;100070.03;;;12.52;79.87
79362;BME280;68830;47.566;19.012;2023-05-14T08:32:11;100113.19;;;12.72;81.06
79362;BME280;68830;47.566;19.012;2023-05-14T08:35:24;100080.88;;;13.01;77.52
79362;BME280;68830;47.566;19.012;2023-05-14T08:38:29;100101.97;;;13.44;76.57
79362;BME280;68830;47.566;19.012;2023-05-14T08:41:32;100093.72;;;13.64;76.82
79362;BME280;68830;47.566;19.012;2023-05-14T08:44:40;100082.72;;;13.67;77.91
79362;BME280;68830;47.566;19.012;2023-05-14T08:47:47;100115.69;;;13.82;76.89
79362;BME280;68830;47.566;19.012;2023-05-14T08:50:52;100100.00;;;13.63;76.50
79362;BME280;68830;47.566;19.012;2023-05-14T08:53:56;100085.56;;;13.65;77.50
79362;BME280;68830;47.566;19.012;2023-05-14T08:57:00;100121.19;;;13.97;75.41
79362;BME280;68830;47.566;19.012;2023-05-14T09:00:06;100072.06;;;13.75;75.22
79362;BME280;68830;47.566;19.012;2023-05-14T09:03:14;100063.47;;;13.14;78.72
79362;BME280;68830;47.566;19.012;2023-05-14T09:06:19;100098.31;;;12.95;80.17
79362;BME280;68830;47.566;19.012;2023-05-14T09:09:22;100053.56;;;12.74;79.27
79362;BME280;68830;47.566;19.012;2023-05-14T09:12:24;100068.50;;;12.75;79.83
79362;BME280;68830;47.566;19.012;2023-05-14T09:15:30;100057.31;;;12.64;80.15
79362;BME280;68830;47.566;19.012;2023-05-14T09:18:34;100101.31;;;12.92;79.55
79362;BME280;68830;47.566;19.012;2023-05-14T09:21:37;100025.31;;;12.39;79.87
79362;BME280;68830;47.566;19.012;2023-05-14T09:24:39;100068.66;;;12.74;81.65
79362;BME280;68830;47.566;19.012;2023-05-14T09:27:45;100051.34;;;12.62;81.56
79362;BME280;68830;47.566;19.012;2023-05-14T09:30:52;100013.09;;;12.46;82.38
79362;BME280;68830;47.566;19.012;2023-05-14T09:33:54;100039.56;;;12.64;83.71
79362;BME280;68830;47.566;19.012;2023-05-14T09:36:59;100019.63;;;12.60;82.69
79362;BME280;68830;47.566;19.012;2023-05-14T09:40:05;100052.75;;;12.82;81.21
79362;BME280;68830;47.566;19.012;2023-05-14T09:43:10;100075.44;;;13.02;83.13
79362;BME280;68830;47.566;19.012;2023-05-14T09:46:14;99995.84;;;12.50;83.40
79362;BME280;68830;47.566;19.012;2023-05-14T09:49:16;100086.38;;;12.99;82.58
79362;BME280;68830;47.566;19.012;2023-05-14T09:52:19;99994.66;;;12.53;84.00
79362;BME280;68830;47.566;19.012;2023-05-14T09:55:21;100070.91;;;12.95;83.80
79362;BME280;68830;47.566;19.012;2023-05-14T09:58:24;100010.00;;;12.67;84.82
79362;BME280;68830;47.566;19.012;2023-05-14T10:01:28;100013.81;;;12.56;84.92
79362;BME280;68830;47.566;19.012;2023-05-14T10:04:32;100007.28;;;12.51;83.99
79362;BME280;68830;47.566;19.012;2023-05-14T10:07:38;99971.69;;;12.36;85.58
79362;BME280;68830;47.566;19.012;2023-05-14T10:10:42;99974.84;;;12.39;85.89
79362;BME280;68830;47.566;19.012;2023-05-14T10:13:48;99971.59;;;12.45;88.28
79362;BME280;68830;47.566;19.012;2023-05-14T10:16:52;99973.34;;;12.37;87.08
79362;BME280;68830;47.566;19.012;2023-05-14T10:19:56;99943.53;;;12.43;87.99
79362;BME280;68830;47.566;19.012;2023-05-14T10:22:59;99945.69;;;12.55;87.50
79362;BME280;68830;47.566;19.012;2023-05-14T10:26:03;99919.50;;;12.69;89.90
79362;BME280;68830;47.566;19.012;2023-05-14T10:29:06;99971.22;;;12.99;86.93
79362;BME280;68830;47.566;19.012;2023-05-14T10:32:09;99945.63;;;12.98;87.87
79362;BME280;68830;47.566;19.012;2023-05-14T10:35:18;99911.41;;;12.78;87.52
79362;BME280;68830;47.566;19.012;2023-05-14T10:38:22;99993.75;;;13.37;86.54
79362;BME280;68830;47.566;19.012;2023-05-14T10:41:27;99928.19;;;12.87;86.65
79362;BME280;68830;47.566;19.012;2023-05-14T10:44:30;99941.81;;;12.92;87.65
79362;BME280;68830;47.566;19.012;2023-05-14T10:47:36;99993.91;;;13.27;86.13
79362;BME280;68830;47.566;19.012;2023-05-14T10:50:40;99947.66;;;13.04;86.92
79362;BME280;68830;47.566;19.012;2023-05-14T10:53:43;99966.09;;;13.13;85.30
79362;BME280;68830;47.566;19.012;2023-05-14T10:56:45;99905.59;;;12.91;87.12
79362;BME280;68830;47.566;19.012;2023-05-14T10:59:48;99911.25;;;12.88;85.21
79362;BME280;68830;47.566;19.012;2023-05-14T11:02:56;99916.22;;;12.99;86.32
79362;BME280;68830;47.566;19.012;2023-05-14T11:06:00;99953.13;;;13.10;86.59
79362;BME280;68830;47.566;19.012;2023-05-14T11:09:03;99978.59;;;13.29;86.31
79362;BME280;68830;47.566;19.012;2023-05-14T11:12:07;99970.41;;;13.14;86.29
79362;BME280;68830;47.566;19.012;2023-05-14T11:15:11;99979.06;;;13.16;87.00
79362;BME280;68830;47.566;19.012;2023-05-14T11:18:26;99968.31;;;13.18;85.52
79362;BME280;68830;47.566;19.012;2023-05-14T11:21:29;99928.69;;;12.91;85.78
79362;BME280;68830;47.566;19.012;2023-05-14T11:24:32;99958.78;;;13.15;86.41
79362;BME280;68830;47.566;19.012;2023-05-14T11:27:36;99905.41;;;12.84;86.55
79362;BME280;68830;47.566;19.012;2023-05-14T11:30:38;99923.03;;;12.94;86.33
79362;BME280;68830;47.566;19.012;2023-05-14T11:33:41;99885.50;;;12.72;87.97
79362;BME280;68830;47.566;19.012;2023-05-14T11:36:43;99899.94;;;12.78;87.13
79362;BME280;68830;47.566;19.012;2023-05-14T11:39:47;99889.31;;;12.78;88.00
79362;BME280;68830;47.566;19.012;2023-05-14T11:42:50;99955.28;;;13.15;87.68
79362;BME280;68830;47.566;19.012;2023-05-14T11:45:57;99873.84;;;12.65;88.33
79362;BME280;68830;47.566;19.012;2023-05-14T11:49:02;99951.78;;;13.14;88.79
79362;BME280;68830;47.566;19.012;2023-05-14T11:52:07;99950.13;;;13.13;89.22
79362;BME280;68830;47.566;19.012;2023-05-14T11:55:10;99946.81;;;13.11;88.61
79362;BME280;68830;47.566;19.012;2023-05-14T11:58:12;99857.53;;;12.52;89.66
79362;BME280;68830;47.566;19.012;2023-05-14T12:01:14;99868.03;;;12.62;88.40
79362;BME280;68830;47.566;19.012;2023-05-14T12:04:18;99870.19;;;12.58;90.28
79362;BME280;68830;47.566;19.012;2023-05-14T12:07:27;99896.63;;;12.76;89.40
79362;BME280;68830;47.566;19.012;2023-05-14T12:10:40;99870.84;;;12.60;90.13
79362;BME280;68830;47.566;19.012;2023-05-14T12:13:42;99870.53;;;12.63;89.50
79362;BME280;68830;47.566;19.012;2023-05-14T12:16:45;99917.06;;;12.92;88.76
79362;BME280;68830;47.566;19.012;2023-05-14T12:19:50;99869.50;;;12.48;88.74
79362;BME280;68830;47.566;19.012;2023-05-14T12:22:53;99868.69;;;12.64;88.36
79362;BME280;68830;47.566;19.012;2023-05-14T12:25:55;99895.75;;;12.67;88.68
79362;BME280;68830;47.566;19.012;2023-05-14T12:29:02;99905.88;;;12.64;87.90
79362;BME280;68830;47.566;19.012;2023-05-14T12:32:08;99838.38;;;12.24;87.43
79362;BME280;68830;47.566;19.012;2023-05-14T12:35:12;99859.53;;;12.42;87.99
79362;BME280;68830;47.566;19.012;2023-05-14T12:38:14;99862.16;;;12.34;87.28
79362;BME280;68830;47.566;19.012;2023-05-14T12:41:16;99854.66;;;12.21;89.77
79362;BME280;68830;47.566;19.012;2023-05-14T12:44:18;99840.28;;;11.89;90.08
79362;BME280;68830;47.566;19.012;2023-05-14T12:47:25;99838.66;;;12.05;88.69
79362;BME280;68830;47.566;19.012;2023-05-14T12:50:29;99817.44;;;11.96;89.13
79362;BME280;68830;47.566;19.012;2023-05-14T12:53:32;99829.03;;;11.95;90.63
79362;BME280;68830;47.566;19.012;2023-05-14T12:56:36;99889.88;;;12.39;90.64
79362;BME280;68830;47.566;19.012;2023-05-14T12:59:39;99804.81;;;11.99;89.68
79362;BME280;68830;47.566;19.012;2023-05-14T13:02:41;99816.94;;;12.01;90.01
79362;BME280;68830;47.566;19.012;2023-05-14T13:05:46;99828.06;;;12.05;89.69
79362;BME280;68830;47.566;19.012;2023-05-14T13:08:48;99854.47;;;12.22;89.38
79362;BME280;68830;47.566;19.012;2023-05-14T13:11:50;99831.22;;;12.08;90.18
79362;BME280;68830;47.566;19.012;2023-05-14T13:14:52;99814.13;;;12.03;90.84
79362;BME280;68830;47.566;19.012;2023-05-14T13:17:53;99803.81;;;12.00;90.96
79362;BME280;68830;47.566;19.012;2023-05-14T13:20:57;99833.41;;;12.21;90.38
79362;BME280;68830;47.566;19.012;2023-05-14T13:23:59;99847.38;;;12.31;91.52
79362;BME280;68830;47.566;19.012;2023-05-14T13:27:01;99810.66;;;12.18;91.61
79362;BME280;68830;47.566;19.012;2023-05-14T13:30:04;99829.28;;;12.26;91.53
79362;BME280;68830;47.566;19.012;2023-05-14T13:33:06;99822.66;;;12.31;91.46
79362;BME280;68830;47.566;19.012;2023-05-14T13:36:11;99790.09;;;12.12;91.14
79362;BME280;68830;47.566;19.012;2023-05-14T13:39:13;99812.53;;;12.26;91.07
79362;BME280;68830;47.566;19.012;2023-05-14T13:42:15;99799.38;;;12.24;91.74
79362;BME280;68830;47.566;19.012;2023-05-14T13:45:17;99809.22;;;12.32;92.13
79362;BME280;68830;47.566;19.012;2023-05-14T13:48:19;99768.03;;;12.12;91.48
79362;BME280;68830;47.566;19.012;2023-05-14T13:51:23;99792.44;;;12.32;91.96
79362;BME280;68830;47.566;19.012;2023-05-14T13:54:25;99784.47;;;12.23;91.83
79362;BME280;68830;47.566;19.012;2023-05-14T13:57:27;99794.78;;;12.35;91.67
79362;BME280;68830;47.566;19.012;2023-05-14T14:00:29;99767.53;;;12.16;92.63
79362;BME280;68830;47.566;19.012;2023-05-14T14:03:31;99752.06;;;12.04;92.68
79362;BME280;68830;47.566;19.012;2023-05-14T14:06:34;99757.91;;;12.15;92.39
79362;BME280;68830;47.566;19.012;2023-05-14T14:09:36;99740.78;;;12.10;91.63
79362;BME280;68830;47.566;19.012;2023-05-14T14:12:38;99714.75;;;11.97;92.67
79362;BME280;68830;47.566;19.012;2023-05-14T14:15:40;99720.53;;;11.92;92.67
79362;BME280;68830;47.566;19.012;2023-05-14T14:18:43;99709.91;;;11.92;93.14
79362;BME280;68830;47.566;19.012;2023-05-14T14:21:47;99706.75;;;11.89;92.86
79362;BME280;68830;47.566;19.012;2023-05-14T14:24:54;99682.38;;;11.85;92.15
79362;BME280;68830;47.566;19.012;2023-05-14T14:27:56;99705.78;;;11.90;92.84
79362;BME280;68830;47.566;19.012;2023-05-14T14:30:58;99721.22;;;12.03;92.59
79362;BME280;68830;47.566;19.012;2023-05-14T14:34:00;99736.84;;;12.14;92.73
79362;BME280;68830;47.566;19.012;2023-05-14T14:37:05;99736.34;;;12.18;92.85
79362;BME280;68830;47.566;19.012;2023-05-14T14:40:08;99747.31;;;12.32;93.25
79362;BME280;68830;47.566;19.012;2023-05-14T14:43:12;99775.22;;;12.44;92.85
79362;BME280;68830;47.566;19.012;2023-05-14T14:46:14;99750.47;;;12.35;92.91
79362;BME280;68830;47.566;19.012;2023-05-14T14:49:16;99724.56;;;12.21;92.72
79362;BME280;68830;47.566;19.012;2023-05-14T14:52:20;99740.00;;;12.34;92.63
79362;BME280;68830;47.566;19.012;2023-05-14T14:55:22;99673.75;;;11.91;92.82
79362;BME280;68830;47.566;19.012;2023-05-14T14:58:24;99737.84;;;12.37;92.59
79362;BME280;68830;47.566;19.012;2023-05-14T15:01:26;99692.53;;;12.14;93.57
79362;BME280;68830;47.566;19.012;2023-05-14T15:04:28;99666.97;;;12.05;93.49
79362;BME280;68830;47.566;19.012;2023-05-14T15:07:35;99683.25;;;12.02;92.55
79362;BME280;68830;47.566;19.012;2023-05-14T15:10:37;99719.59;;;12.26;92.83
79362;BME280;68830;47.566;19.012;2023-05-14T15:13:39;99739.34;;;12.32;92.11
79362;BME280;68830;47.566;19.012;2023-05-14T15:16:42;99709.63;;;12.12;92.33
79362;BME280;68830;47.566;19.012;2023-05-14T15:19:44;99691.38;;;12.01;92.12
79362;BME280;68830;47.566;19.012;2023-05-14T15:22:48;99706.44;;;12.08;91.75
79362;BME280;68830;47.566;19.012;2023-05-14T15:25:52;99739.16;;;12.17;93.02
79362;BME280;68830;47.566;19.012;2023-05-14T15:28:54;99727.22;;;12.13;93.06
79362;BME280;68830;47.566;19.012;2023-05-14T15:31:56;99709.13;;;12.00;92.62
79362;BME280;68830;47.566;19.012;2023-05-14T15:34:58;99722.22;;;12.10;93.01
79362;BME280;68830;47.566;19.012;2023-05-14T15:38:05;99712.59;;;12.01;92.74
79362;BME280;68830;47.566;19.012;2023-05-14T15:41:09;99693.16;;;11.92;92.79
79362;BME280;68830;47.566;19.012;2023-05-14T15:44:11;99720.22;;;12.04;92.83
79362;BME280;68830;47.566;19.012;2023-05-14T15:47:13;99653.78;;;11.55;92.51
79362;BME280;68830;47.566;19.012;2023-05-14T15:50:14;99701.94;;;11.92;91.97